createdAt,value
2019-02-09T00:00:07.274Z,23.57
2019-02-09T00:02:45.660Z,20.60
2019-02-09T00:05:21.246Z,29.07
2019-02-09T00:07:52.291Z,23.73
2019-02-09T00:10:31.477Z,22.80
2019-02-09T00:13:06.779Z,20.77
2019-02-09T00:15:38.838Z,25.40
2019-02-09T00:18:12.202Z,20.57
2019-02-09T00:20:45.162Z,26.33
2019-02-09T00:23:19.673Z,25.40
2019-02-09T00:25:54.226Z,25.77
2019-02-09T00:28:26.542Z,28.73
2019-02-09T00:30:57.472Z,24.57
2019-02-09T00:33:30.339Z,30.60
2019-02-09T00:36:01.255Z,27.97
2019-02-09T00:38:31.977Z,22.53
2019-02-09T00:41:20.431Z,28.37
2019-02-09T00:43:54.333Z,25.73
2019-02-09T00:46:32.587Z,23.13
2019-02-09T00:49:03.691Z,26.33
2019-02-09T00:51:34.515Z,24.57
2019-02-09T00:54:07.696Z,19.60
2019-02-09T00:56:41.537Z,21.53
2019-02-09T00:59:18.308Z,23.83
2019-02-09T01:01:53.462Z,20.27
2019-02-09T01:04:26.693Z,22.07
2019-02-09T01:06:57.548Z,20.77
2019-02-09T01:09:28.012Z,28.60
2019-02-09T01:11:58.557Z,28.23
2019-02-09T01:14:28.886Z,25.40
2019-02-09T01:17:00.280Z,27.13
2019-02-09T01:19:30.976Z,26.07
2019-02-09T01:22:01.320Z,21.13
2019-02-09T01:24:31.839Z,21.93
2019-02-09T01:27:03.453Z,25.07
2019-02-09T01:29:38.748Z,26.43
2019-02-09T01:32:09.779Z,20.43
2019-02-09T01:34:40.335Z,22.37
2019-02-09T01:37:11.487Z,26.17
2019-02-09T01:39:47.307Z,25.90
2019-02-09T01:42:14.716Z,36.00
2019-02-09T01:44:45.150Z,23.93
2019-02-09T01:47:17.160Z,25.37
2019-02-09T01:49:48.034Z,27.50
2019-02-09T01:52:18.836Z,26.77
2019-02-09T01:54:50.865Z,28.27
2019-02-09T01:57:23.199Z,27.57
2019-02-09T01:59:54.168Z,24.13
2019-02-09T02:02:43.770Z,21.50
2019-02-09T02:05:15.706Z,22.73
2019-02-09T02:07:48.236Z,29.43
2019-02-09T02:10:27.470Z,22.67
2019-02-09T02:13:00.034Z,26.97
2019-02-09T02:15:31.368Z,22.67
2019-02-09T02:18:04.324Z,22.17
2019-02-09T02:20:34.904Z,23.93
2019-02-09T02:23:06.860Z,31.80
2019-02-09T02:25:38.757Z,31.00
2019-02-09T02:28:09.133Z,28.20
2019-02-09T02:30:40.042Z,31.87
2019-02-09T02:33:10.912Z,25.20
2019-02-09T02:35:41.337Z,25.40
2019-02-09T02:38:11.831Z,22.60
2019-02-09T02:40:42.391Z,26.97
2019-02-09T02:43:18.174Z,29.90
2019-02-09T02:45:48.733Z,26.50
2019-02-09T02:48:20.936Z,22.73
2019-02-09T02:50:54.190Z,29.03
2019-02-09T02:53:24.659Z,30.63
2019-02-09T02:55:57.373Z,26.03
2019-02-09T02:58:30.832Z,19.20
2019-02-09T03:01:00.985Z,18.30
2019-02-09T03:03:32.585Z,23.87
2019-02-09T03:06:03.327Z,21.07
2019-02-09T03:08:35.554Z,20.97
2019-02-09T03:11:09.554Z,23.23
2019-02-09T03:13:40.280Z,20.30
2019-02-09T03:16:16.959Z,20.43
2019-02-09T03:18:47.476Z,23.10
2019-02-09T03:21:18.967Z,18.07
2019-02-09T03:23:53.879Z,24.17
2019-02-09T03:26:23.594Z,24.63
2019-02-09T03:28:57.659Z,18.00
2019-02-09T03:31:35.979Z,19.30
2019-02-09T03:34:06.805Z,24.30
2019-02-09T03:36:38.756Z,18.60
2019-02-09T03:39:10.265Z,25.33
2019-02-09T03:41:40.792Z,19.47
2019-02-09T03:44:12.722Z,19.33
2019-02-09T03:46:46.010Z,19.73
2019-02-09T03:49:16.746Z,20.30
2019-02-09T03:51:50.734Z,16.60
2019-02-09T03:54:20.802Z,14.13
2019-02-09T03:56:52.121Z,23.03
2019-02-09T03:59:25.869Z,17.03
2019-02-09T04:01:58.291Z,22.63
2019-02-09T04:04:30.783Z,18.13
2019-02-09T04:07:03.739Z,20.47
2019-02-09T04:09:34.943Z,20.13
2019-02-09T04:12:08.292Z,19.33
2019-02-09T04:14:39.227Z,22.30
2019-02-09T04:17:09.801Z,19.87
2019-02-09T04:19:45.030Z,17.40
2019-02-09T04:22:15.544Z,19.60
2019-02-09T04:24:56.869Z,23.27
2019-02-09T04:27:28.520Z,18.43
2019-02-09T04:29:59.376Z,17.93
2019-02-09T04:32:30.235Z,19.90
2019-02-09T04:35:02.246Z,24.30
2019-02-09T04:37:34.960Z,23.23
2019-02-09T04:40:07.941Z,21.63
2019-02-09T04:42:39.771Z,21.13
2019-02-09T04:45:13.024Z,22.50
2019-02-09T04:47:43.995Z,23.80
2019-02-09T04:50:15.584Z,15.80
2019-02-09T04:52:49.491Z,24.17
2019-02-09T04:55:21.929Z,23.23
2019-02-09T04:57:52.929Z,26.90
2019-02-09T05:00:30.340Z,21.77
2019-02-09T05:03:05.496Z,23.93
2019-02-09T05:05:36.571Z,23.30
2019-02-09T05:08:11.708Z,22.80
2019-02-09T05:10:46.177Z,21.03
2019-02-09T05:13:18.402Z,28.37
2019-02-09T05:15:49.405Z,26.07
2019-02-09T05:18:20.110Z,25.77
2019-02-09T05:20:50.652Z,21.47
2019-02-09T05:23:21.612Z,22.83
2019-02-09T05:25:56.215Z,19.73
2019-02-09T05:28:26.929Z,19.03
2019-02-09T05:30:57.697Z,24.27
2019-02-09T05:33:30.804Z,24.20
2019-02-09T05:36:01.547Z,26.50
2019-02-09T05:38:32.265Z,21.20
2019-02-09T05:41:02.994Z,18.37
2019-02-09T05:43:33.611Z,22.37
2019-02-09T05:46:05.018Z,19.27
2019-02-09T05:48:35.867Z,24.37
2019-02-09T05:51:07.368Z,20.60
2019-02-09T05:53:39.967Z,22.17
2019-02-09T05:56:10.373Z,20.80
2019-02-09T05:58:44.886Z,21.70
2019-02-09T06:01:16.634Z,24.13
2019-02-09T06:03:47.270Z,21.73
2019-02-09T06:06:20.848Z,23.07
2019-02-09T06:08:51.426Z,24.23
2019-02-09T06:11:24.624Z,23.73
2019-02-09T06:13:55.621Z,20.10
2019-02-09T06:16:26.869Z,24.47
2019-02-09T06:18:58.757Z,24.20
2019-02-09T06:21:33.242Z,26.13
2019-02-09T06:24:09.275Z,26.93
2019-02-09T06:26:44.025Z,24.97
2019-02-09T06:29:14.961Z,21.17
2019-02-09T06:31:45.810Z,26.97
2019-02-09T06:34:16.806Z,25.40
2019-02-09T06:37:00.427Z,26.07
2019-02-09T06:39:31.179Z,29.27
2019-02-09T06:42:03.514Z,29.23
2019-02-09T06:44:37.089Z,30.50
2019-02-09T06:47:19.401Z,29.60
2019-02-09T06:49:55.185Z,33.30
2019-02-09T06:52:44.063Z,24.33
2019-02-09T06:55:25.892Z,36.47
2019-02-09T06:57:56.868Z,41.40
2019-02-09T07:00:31.050Z,34.67
2019-02-09T07:03:03.049Z,33.40
2019-02-09T07:05:40.319Z,29.37
2019-02-09T07:08:12.973Z,35.53
2019-02-09T07:10:45.968Z,28.13
2019-02-09T07:13:25.427Z,32.23
2019-02-09T07:15:56.381Z,31.87
2019-02-09T07:18:27.730Z,35.00
2019-02-09T07:21:04.216Z,31.33
2019-02-09T07:23:35.185Z,39.40
2019-02-09T07:26:07.996Z,37.80
2019-02-09T07:28:45.837Z,38.07
2019-02-09T07:31:28.138Z,33.70
2019-02-09T07:34:00.483Z,33.37
2019-02-09T07:36:41.490Z,32.47
2019-02-09T07:39:14.578Z,37.70
2019-02-09T07:41:47.130Z,38.17
2019-02-09T07:44:29.016Z,36.10
2019-02-09T07:46:56.764Z,36.17
2019-02-09T07:49:33.436Z,37.00
2019-02-09T07:52:06.894Z,43.63
2019-02-09T07:54:39.814Z,36.10
2019-02-09T07:57:16.009Z,32.40
2019-02-09T07:59:46.875Z,38.57
2019-02-09T08:02:17.608Z,39.30
2019-02-09T08:04:59.216Z,37.00
2019-02-09T08:07:37.514Z,31.80
2019-02-09T08:10:36.162Z,35.07
2019-02-09T08:13:08.928Z,35.03
2019-02-09T08:15:46.199Z,35.60
2019-02-09T08:18:42.758Z,38.53
2019-02-09T08:21:20.779Z,34.73
2019-02-09T08:23:52.982Z,36.53
2019-02-09T08:26:36.059Z,31.90
2019-02-09T08:29:19.177Z,34.63
2019-02-09T08:31:44.594Z,27.37
2019-02-09T08:34:20.465Z,29.13
2019-02-09T08:36:56.060Z,32.57
2019-02-09T08:39:31.607Z,33.67
2019-02-09T08:42:11.400Z,32.70
2019-02-09T08:44:45.853Z,29.43
2019-02-09T08:47:47.325Z,32.27
2019-02-09T08:50:10.798Z,35.77
2019-02-09T08:53:33.019Z,37.43
2019-02-09T08:55:54.409Z,32.03
2019-02-09T08:58:52.424Z,38.17
2019-02-09T09:01:55.132Z,33.67
2019-02-09T09:10:55.983Z,36.63
2019-02-09T09:13:34.592Z,35.07
2019-02-09T09:16:12.710Z,48.07
2019-02-09T09:18:53.990Z,34.83
2019-02-09T09:21:43.771Z,32.57
2019-02-09T09:24:11.817Z,38.10
2019-02-09T09:26:48.060Z,33.10
2019-02-09T09:29:41.229Z,33.40
2019-02-09T09:32:12.717Z,37.63
2019-02-09T09:34:41.823Z,41.77
2019-02-09T09:37:20.629Z,28.90
2019-02-09T09:39:56.610Z,35.93
2019-02-09T09:42:31.176Z,34.40
2019-02-09T09:45:09.227Z,34.67
2019-02-09T09:47:48.240Z,32.13
2019-02-09T09:50:22.759Z,30.40
2019-02-09T09:52:57.092Z,32.97
2019-02-09T09:55:31.521Z,38.37
2019-02-09T09:58:07.255Z,33.97
2019-02-09T10:00:43.482Z,34.23
2019-02-09T10:03:14.121Z,31.50
2019-02-09T10:05:50.236Z,31.77
2019-02-09T10:08:28.346Z,31.07
2019-02-09T10:11:08.746Z,29.27
2019-02-09T10:13:41.841Z,30.97
2019-02-09T10:16:19.841Z,28.60
2019-02-09T10:18:55.269Z,32.03
2019-02-09T10:22:16.828Z,33.53
2019-02-09T10:24:04.742Z,28.30
2019-02-09T10:26:42.394Z,34.77
2019-02-09T10:29:16.222Z,31.70
2019-02-09T10:31:58.821Z,30.57
2019-02-09T10:34:35.471Z,29.43
2019-02-09T10:37:32.287Z,30.53
2019-02-09T10:39:49.277Z,30.47
2019-02-09T10:42:27.818Z,31.97
2019-02-09T10:45:04.427Z,35.07
2019-02-09T10:47:54.715Z,30.20
2019-02-09T10:50:56.649Z,28.90
2019-02-09T10:53:35.446Z,31.30
2019-02-09T10:56:14.755Z,24.83
2019-02-09T10:58:50.464Z,25.57
2019-02-09T11:01:39.159Z,34.40
2019-02-09T11:04:34.568Z,24.70
2019-02-09T11:07:27.451Z,20.00
2019-02-09T11:10:29.297Z,24.73
2019-02-09T11:13:06.211Z,24.20
2019-02-09T11:16:05.739Z,21.47
2019-02-09T11:18:41.670Z,28.33
2019-02-09T11:21:14.691Z,25.67
2019-02-09T11:23:53.053Z,22.53
2019-02-09T11:26:24.111Z,21.27
2019-02-09T11:29:13.488Z,25.32
2019-02-09T11:31:52.911Z,22.43
2019-02-09T11:35:06.990Z,23.73
2019-02-09T11:37:47.116Z,22.50
2019-02-09T11:40:53.499Z,19.90
2019-02-09T11:44:28.884Z,20.20
2019-02-09T11:50:12.910Z,24.63
2019-02-09T11:55:23.539Z,20.03
2019-02-09T11:57:57.931Z,25.00
2019-02-09T12:00:40.566Z,21.13
2019-02-09T12:03:26.120Z,20.30
2019-02-09T12:06:15.082Z,26.77
2019-02-09T12:08:53.906Z,24.87
2019-02-09T12:11:43.632Z,21.47
2019-02-09T12:14:53.329Z,24.27
2019-02-09T12:21:56.061Z,25.70
2019-02-09T12:24:54.008Z,26.23
2019-02-09T12:34:29.349Z,22.60
2019-02-09T12:54:37.653Z,25.00
2019-02-09T13:21:33.589Z,22.50
2019-02-09T13:24:11.206Z,25.77
2019-02-09T13:26:53.157Z,24.47
2019-02-09T13:29:45.104Z,21.63
2019-02-09T13:32:24.011Z,21.53
2019-02-09T13:35:06.243Z,21.07
2019-02-09T13:37:40.931Z,22.97
2019-02-09T13:40:34.820Z,23.13
2019-02-09T13:43:18.986Z,22.27
2019-02-09T13:46:35.738Z,18.43
2019-02-09T14:02:39.785Z,20.40
2019-02-09T14:05:17.763Z,19.20
2019-02-09T14:08:16.034Z,20.70
2019-02-09T14:15:01.583Z,14.00
2019-02-09T14:32:33.865Z,13.50
2019-02-09T14:38:14.836Z,12.77
2019-02-09T14:40:56.438Z,11.20
2019-02-09T14:44:18.170Z,16.30
2019-02-09T14:47:45.882Z,13.77
2019-02-09T14:50:45.196Z,14.87
2019-02-09T14:56:18.428Z,19.33
2019-02-09T14:59:37.718Z,15.90
2019-02-09T15:09:55.704Z,12.97
2019-02-09T15:16:50.703Z,14.73
2019-02-09T15:21:16.019Z,16.43
2019-02-09T15:44:18.363Z,24.70
2019-02-09T16:01:55.220Z,24.43
2019-02-09T16:08:19.791Z,31.37
2019-02-09T16:14:23.817Z,29.33
2019-02-09T16:16:56.163Z,30.87
2019-02-09T16:24:15.113Z,40.43
2019-02-09T16:35:56.356Z,34.83
2019-02-09T16:38:56.438Z,73.20
2019-02-09T16:46:19.812Z,29.87
2019-02-09T16:52:34.549Z,27.60
2019-02-09T16:59:04.161Z,25.00
2019-02-09T17:05:01.078Z,32.63
2019-02-09T17:07:59.510Z,27.03
2019-02-09T17:11:20.861Z,26.80
2019-02-09T17:25:47.700Z,22.33
2019-02-09T17:44:45.091Z,23.17
